x

9014098 - Fort Gratiot, Mi (ftgm4) Weather Station

6:12pm - Thu 26th Mar 2015 All times are CDT. -5 hours from GMT.

  • Wind
    6mph, 11mph gusts
  • Air Temp 39°f
  • Sea Pressure 1010.5mb
  • 9014098 - Fort Gratiot, Mi
  • 9014098 - Fort Gratiot, Mi

More Historic Weather Station data

Upgrade to MSW Pro to gain access to the past 30 days of data for over 8000 Wavebouys and Weather Stations around the globe.

Join Pro

Comparision Forecast

View Surf forecast
   
Thu 03/26 6:12pm 6 11 mph 1010.5mb 39f
6:06pm 7 10 mph 1010.4mb 39f
6:00pm 8 15 mph 1010.4mb 39f
5:54pm 8 11 mph 1010.5mb 39f
5:48pm 7 11 mph 1010.4mb 39f
5:42pm 6 9 mph 1010.4mb 39f
5:36pm 10 14 mph 1010.4mb 39f
5:30pm 7 14 mph 1010.3mb 39f
5:24pm 8 14 mph 1010.3mb 39f
5:18pm 8 11 mph 1010.1mb 39f
5:12pm 7 14 mph 1010.1mb 40f
5:06pm 11 15 mph 1010.1mb 40f
5:00pm 6 15 mph 1010mb 40f
4:54pm 10 14 mph 1010mb 40f
4:42pm 10 16 mph 1009.9mb 40f
4:36pm 11 18 mph 1010mb 40f
4:30pm 9 13 mph 1009.8mb 40f
4:24pm 6 11 mph 1009.6mb 40f
4:18pm 7 10 mph 1009.5mb 40f
4:12pm 8 13 mph 1009.5mb 40f
4:06pm 7 10 mph 1009.4mb 40f
4:00pm 7 9 mph 1009.3mb 40f
3:54pm 8 10 mph 1009.2mb 40f
3:48pm 7 15 mph - -
3:42pm 13 17 mph 1009mb 40f
3:36pm 10 16 mph 1008.9mb 40f
3:30pm 6 13 mph 1009mb 40f
3:24pm 9 16 mph 1008.9mb 40f
3:18pm 10 17 mph - -
3:12pm 10 16 mph 1008.9mb 40f
3:06pm 13 17 mph 1009mb 40f
3:00pm 9 21 mph 1009mb 40f
2:54pm 16 21 mph 1009mb 40f
2:48pm 7 14 mph 1009mb 41f
2:42pm 3 14 mph 1009mb 42f
2:36pm 8 16 mph 1009mb 41f
2:30pm 9 17 mph 1008.9mb 41f
2:24pm 8 15 mph 1009mb 42f
2:18pm 14 16 mph 1008.9mb 42f
2:12pm 8 14 mph 1009mb 41f
2:06pm 11 15 mph 1008.9mb 41f
2:00pm 13 17 mph 1008.9mb 41f
1:54pm 7 14 mph 1008.9mb 42f
1:42pm 11 16 mph 1009mb 42f
1:36pm 13 16 mph 1009.1mb 41f
1:30pm 10 15 mph 1009.1mb 41f
1:24pm 5 13 mph 1009.2mb 41f
1:18pm 9 16 mph 1009.3mb 41f
1:12pm 10 15 mph 1009.2mb 41f
1:06pm 8 14 mph 1009.2mb 41f
1:00pm 8 11 mph 1009.2mb 42f
12:54pm 7 11 mph 1009.3mb 41f
12:48pm 10 13 mph 1009.3mb 41f
12:42pm 8 11 mph 1009.3mb 41f
12:36pm 7 11 mph 1009.3mb 41f
12:30pm 9 13 mph 1009.4mb 40f
12:24pm 5 13 mph 1009.3mb 41f
12:18pm 7 9 mph 1009.3mb 41f
12:12pm 6 9 mph 1009.4mb 41f
12:06pm 7 10 mph 1009.5mb 41f
12:00pm 9 11 mph 1009.5mb 41f
11:54am 7 10 mph 1009.6mb 41f
11:48am 8 10 mph 1009.7mb 40f
11:42am 7 9 mph 1009.7mb 40f
11:36am 6 10 mph 1009.8mb 41f
11:30am 6 10 mph 1009.7mb 41f
11:24am 7 9 mph 1009.8mb 40f
11:18am 7 9 mph 1009.8mb 41f
11:12am 7 11 mph 1009.8mb 40f
11:06am 6 9 mph 1009.9mb 40f
11:00am 8 11 mph 1010mb 40f
10:54am 8 11 mph 1010.1mb 40f
10:48am 7 13 mph 1010.1mb 40f
10:42am 8 10 mph 1010.1mb 40f
10:36am 8 13 mph 1010.2mb 40f
10:30am 5 9 mph 1010.3mb 40f
10:24am 6 11 mph 1010.3mb 40f
10:18am 5 7 mph 1010.4mb 40f
10:12am 9 13 mph 1010.5mb 40f
10:06am 11 15 mph 1010.6mb 39f
10:00am 8 14 mph 1010.5mb 40f
9:54am 5 9 mph 1010.5mb 40f
9:48am 7 10 mph 1010.5mb -
9:42am 8 13 mph 1010.6mb 39f
9:36am 11 14 mph 1010.6mb 39f
9:30am 6 10 mph 1010.6mb 39f
9:24am 5 8 mph 1010.6mb 39f
9:18am 6 9 mph 1010.6mb 39f
9:12am 6 10 mph 1010.5mb 39f
9:06am 7 9 mph 1010.5mb 39f
9:00am 5 8 mph 1010.6mb 38f
8:54am 6 8 mph 1010.6mb 38f
8:48am 5 7 mph 1010.8mb -
8:42am 5 7 mph 1010.7mb 38f
8:36am 5 6 mph 1010.8mb 38f
8:30am 5 6 mph 1010.9mb 38f
8:24am 5 6 mph 1011mb 38f
8:18am 5 7 mph 1011.2mb 38f
8:12am 5 8 mph 1011.2mb 38f
8:06am 5 7 mph 1011.2mb 37f
8:00am 5 6 mph 1011.2mb 37f
7:54am 5 7 mph 1011.2mb 37f
7:48am 6 7 mph 1011.3mb -
7:42am 3 6 mph 1011.4mb 37f
7:36am 5 6 mph 1011.5mb 37f
7:30am 5 6 mph 1011.5mb 37f
7:24am 5 6 mph 1011.5mb 37f
7:18am 3 6 mph 1011.5mb -
7:12am 3 6 mph 1011.4mb 37f
7:06am 5 6 mph 1011.3mb 37f
6:54am 5 6 mph 1011.3mb 37f
6:42am 6 7 mph 1011.6mb 37f
6:36am 6 7 mph 1011.7mb 37f
6:30am 5 7 mph 1011.7mb 37f
6:24am 5 7 mph 1011.7mb 37f
6:18am 7 8 mph 1011.6mb 37f
6:12am 6 7 mph 1011.5mb 37f
6:06am 3 5 mph 1011.2mb 37f
6:00am 3 5 mph 1011.1mb 37f
5:54am 3 5 mph 1011.3mb 37f
5:48am 3 5 mph 1011.3mb 37f
5:42am 3 5 mph 1011.3mb 36f
5:36am 3 5 mph 1011.3mb 37f
5:30am 5 6 mph 1011.4mb 37f
5:24am 3 5 mph 1011.4mb 37f
5:18am 3 5 mph 1011.5mb 37f
5:12am 3 5 mph 1011.4mb 37f
5:06am 2 3 mph 1011.3mb 37f
5:00am  -  mph 1011.3mb 37f
4:54am  -  mph 1011.2mb 37f
4:48am 1 3 mph 1011.2mb -
4:42am 2 3 mph 1011.3mb -
4:36am 1 2 mph 1011.4mb -
4:30am 2
mph
1011.4mb 37f
4:24am 1 2 mph 1011.5mb 37f
4:18am 2
mph
1011.5mb 37f
4:12am 2
mph
1011.6mb 37f
4:06am 2 3 mph 1011.7mb 38f
4:00am 2 3 mph 1011.8mb 38f
3:54am 2 3 mph 1011.8mb 38f
3:48am 2 3 mph 1011.9mb 37f
3:42am 3 6 mph 1012.1mb 38f
3:36am 2 5 mph 1012.2mb 38f
3:30am 3 6 mph 1012.3mb 38f
3:24am 3 5 mph 1012.4mb 38f
3:18am 3 6 mph 1012.7mb 38f
3:12am 5 6 mph 1012.9mb 38f
3:06am 5 6 mph 1013mb 38f
3:00am 3 6 mph 1013.1mb 38f
2:54am 5 7 mph 1013.3mb 38f
2:48am 5 6 mph 1013.4mb 38f
2:42am 5 8 mph 1013.8mb 38f
2:36am 7 9 mph 1014.1mb 39f
2:30am 8 10 mph 1014.2mb 39f
2:24am 7 10 mph 1014.3mb 39f
2:18am 6 9 mph 1014.4mb -
2:12am 6 8 mph 1014.3mb 39f
2:06am 6 8 mph 1014.1mb 39f
2:00am 7 8 mph 1014.1mb 39f
1:54am 6 9 mph 1014.2mb 39f
1:48am 6 8 mph 1014.2mb -
1:24am 7 11 mph 1014.3mb -
1:18am 10 13 mph 1014.5mb 39f
1:00am 8 9 mph 1014.2mb 39f
12:54am 7 8 mph 1014.1mb 39f
12:48am 5 8 mph 1014.1mb 39f
12:42am 6 8 mph 1014mb 39f
12:36am 6 8 mph 1013.9mb 39f
12:30am 6 8 mph 1013.8mb 39f
12:24am 6
mph
1013.7mb 39f
12:18am 3 6 mph 1013.6mb -
12:12am 5 7 mph 1013.8mb 39f
12:06am 6 7 mph 1013.8mb 39f
12:00am 6 9 mph 1014mb 39f
Wed 03/25 11:54pm 6 9 mph 1014mb 39f
11:48pm 6 9 mph 1014.1mb 39f
11:42pm 6 11 mph 1014.2mb 39f
11:36pm 5 9 mph 1014.2mb 39f
11:30pm 7 10 mph 1014.3mb 39f
11:24pm 9 14 mph 1014.4mb 40f
11:18pm 9 15 mph 1014.5mb 40f
11:12pm 7 11 mph 1014.6mb 39f
11:06pm 5 10 mph 1014.5mb 39f
11:00pm 6 14 mph 1014.4mb 40f
10:54pm 9 13 mph 1014.3mb 39f
10:48pm 8 16 mph 1014.6mb 40f
10:42pm 13 21 mph 1014.7mb 40f
10:36pm 9 14 mph 1014.8mb 40f
10:30pm 8 16 mph 1014.7mb 40f
10:24pm 11 17 mph 1014.6mb 40f
10:18pm 10 16 mph - -
10:12pm 10 18 mph 1014.4mb 40f
10:06pm 11 20 mph 1014.4mb 40f
10:00pm 8 14 mph 1014.2mb 40f
9:54pm 6 10 mph 1014mb 40f
9:48pm 7 11 mph 1013.9mb 41f
9:42pm 10 21 mph 1013.8mb 41f
9:36pm 14 21 mph 1013.8mb 42f
9:30pm 14 18 mph 1013.8mb 42f
9:24pm 13 20 mph 1013.9mb 42f
9:18pm 9 17 mph 1013.8mb 43f
9:12pm 10 16 mph 1013.6mb 43f
9:06pm 9 20 mph 1013.6mb 43f
9:00pm 14 21 mph 1013.5mb 44f
8:54pm 7 13 mph 1013.2mb 45f
8:48pm 5 14 mph 1013.1mb 45f
8:42pm 8 15 mph 1013.2mb 46f
8:36pm 9 14 mph 1013.1mb 46f
8:30pm 5 11 mph 1013mb 46f
8:24pm 7 11 mph 1012.9mb 46f
8:18pm 8 13 mph 1013mb -
8:12pm 9 13 mph 1012.8mb 47f
8:06pm 8 17 mph 1012.7mb 47f
8:00pm 10 18 mph 1012.6mb 47f
7:54pm 10 22 mph 1012.6mb 47f
7:48pm 15 20 mph 1012.4mb 48f
7:42pm 8 18 mph 1012.4mb 48f
7:36pm 11 18 mph 1012.3mb 48f
7:30pm 14 21 mph 1012.1mb 49f
7:24pm 11 18 mph 1011.9mb 49f
7:18pm 11 20 mph 1011.7mb -
7:12pm 14 20 mph 1011.6mb 49f
7:06pm 13 20 mph 1011.4mb 49f
7:00pm 11 17 mph 1011.3mb 49f
6:54pm 8 17 mph 1011.3mb 50f
6:48pm 9 15 mph 1011.3mb 50f
6:42pm 13 14 mph 1011.2mb 50f
6:36pm 9 14 mph 1011.1mb 50f
6:30pm 9 17 mph 1010.9mb 51f
6:24pm 10 18 mph 1010.9mb 51f
6:12pm 15 22 mph 1010.9mb 51f
6:06pm 15 20 mph 1010.9mb 51f
6:00pm 8 18 mph 1010.9mb 52f
5:54pm 13 16 mph 1010.8mb 52f
5:48pm 9 17 mph 1010.8mb 52f
5:42pm 16 21 mph 1010.7mb 52f
5:36pm 13 18 mph 1010.7mb 52f
5:30pm 17 23 mph 1010.6mb 52f
5:24pm 14 23 mph 1010.6mb 53f
5:18pm 14 21 mph 1010.5mb 53f
5:12pm 13 22 mph 1010.5mb 53f
5:06pm 16 21 mph 1010.5mb 52f
5:00pm 15 22 mph 1010.6mb 52f
4:54pm 13 22 mph 1010.6mb 52f
4:48pm 16 24 mph 1010.6mb 52f
4:42pm 15 22 mph 1010.6mb 52f
4:36pm 21 26 mph 1010.5mb 52f
4:30pm 15 24 mph 1010.5mb 52f
4:24pm 14 21 mph 1010.4mb 52f
4:18pm 13 26 mph 1010.4mb 52f
4:12pm 16 25 mph 1010.3mb 52f
4:06pm 13 18 mph 1010.1mb 52f
4:00pm 16 28 mph 1010.1mb 51f
3:54pm 17 23 mph 1010mb 51f
3:48pm 15 24 mph 1009.9mb 51f
3:42pm 11 23 mph 1009.8mb 51f
3:36pm 8 26 mph 1009.7mb 51f
3:30pm 14 25 mph 1009.6mb 51f
3:24pm 16 20 mph 1009.6mb 51f
3:18pm 13 21 mph 1009.4mb 51f
3:12pm 18 26 mph 1009.5mb 50f
3:06pm 14 25 mph 1009.4mb 50f
3:00pm 15 28 mph 1009.5mb 49f
2:54pm 15 22 mph 1009.6mb 49f
2:48pm 10 18 mph 1009.5mb 48f
2:42pm 14 21 mph 1009.4mb 47f
2:36pm 11 22 mph 1009.5mb 47f
2:30pm 9 17 mph 1009.4mb 46f
2:24pm 14 22 mph 1009.5mb 46f
2:18pm 10 18 mph 1009.4mb -
2:12pm 14 21 mph 1009.4mb 45f
2:06pm 11 21 mph 1009.3mb 45f
2:00pm 11 22 mph 1009.2mb 45f
1:54pm 16 22 mph 1009.1mb 45f
1:48pm 14 18 mph 1009.1mb 45f
1:42pm 10 24 mph 1009.2mb 44f
1:36pm 15 22 mph 1009mb 44f
1:30pm 11 22 mph 1009.2mb 44f
1:24pm 18 24 mph 1009.3mb 44f
1:12pm 17 25 mph 1009.3mb 44f
1:06pm 18 24 mph 1009mb 44f
1:00pm 15 24 mph 1009mb 44f
12:54pm 20 26 mph 1008.8mb 44f
12:48pm 11 18 mph 1008.5mb 44f
12:42pm 10 18 mph 1008.4mb 44f
12:36pm 14 21 mph 1008.4mb 43f
12:30pm 14 20 mph 1008.5mb 43f
12:24pm 13 18 mph 1008.5mb 42f
12:18pm 10 18 mph 1008.5mb 42f
12:12pm 14 20 mph 1008.5mb 42f
12:06pm 13 20 mph 1008.5mb 41f
12:00pm 11 17 mph 1008.4mb 41f
11:54am 9 13 mph 1008.4mb 40f
11:48am 7 14 mph 1008.5mb 40f
11:42am 9 17 mph 1008.5mb 40f
11:36am 15 20 mph 1008.4mb 39f
11:30am 13 18 mph 1008.5mb 39f
11:24am 13 17 mph 1008.5mb 38f
11:18am 11 18 mph 1008.6mb 38f
11:12am 15 18 mph 1008.7mb 38f
11:06am 15 20 mph 1008.7mb 37f
11:00am 14 18 mph 1008.8mb 37f
10:54am 16 21 mph 1008.8mb 37f
10:42am 16 22 mph 1009mb 37f
10:36am 14 22 mph 1009mb 37f
10:30am 14 17 mph 1009.1mb 36f
10:24am 13 16 mph 1009.3mb 36f
10:18am 11 17 mph 1009.4mb 36f
10:12am 15 20 mph 1009.5mb 36f
10:06am 14 18 mph 1009.7mb 35f
10:00am 13 17 mph 1009.8mb 35f
9:54am 10 15 mph 1009.7mb 35f
9:48am 11 17 mph 1009.5mb 35f
9:42am 13 17 mph 1009.6mb 35f
9:36am 14 21 mph 1009.9mb 35f
9:30am 11 16 mph 1010.1mb 35f
9:24am 14 20 mph 1010.3mb 35f
9:18am 15 21 mph - -
9:12am 13 20 mph 1010.6mb 35f
9:06am 15 22 mph 1010.7mb 35f
9:00am 14 17 mph 1010.7mb 35f
8:54am 16 22 mph 1010.8mb 35f
8:48am 14 20 mph 1011mb 35f
8:42am 16 21 mph 1011.1mb 35f
8:36am 13 17 mph 1011.3mb 35f
8:30am 15 20 mph 1011.7mb 35f
8:24am 15 23 mph 1012mb 35f
8:18am 14 18 mph - -
8:12am 15 20 mph 1012mb 35f
8:06am 16 21 mph 1012.1mb 35f
8:00am 15 24 mph 1012.2mb 35f
7:54am 15 24 mph 1012.3mb 35f
7:48am 17 24 mph 1012.4mb 35f
7:42am 17 22 mph 1012.6mb 35f
7:36am 18 23 mph 1012.7mb 35f
7:30am 20 25 mph 1012.7mb 35f
7:24am 17 22 mph 1013mb 35f
7:18am 18 22 mph 1013.2mb -
7:12am 15 23 mph 1013.5mb 34f
7:06am 16 22 mph 1013.6mb 34f
7:00am 14 20 mph 1013.7mb 34f
6:54am 14 20 mph 1013.8mb 33f
6:48am 14 20 mph 1013.9mb 33f
6:42am 17 22 mph 1014.1mb 33f
6:36am 16 23 mph 1014.2mb 33f
6:30am 14 16 mph 1014.4mb 32f
6:24am 13 17 mph 1014.7mb 32f
6:18am 14 20 mph 1014.6mb 32f
6:12am 13 17 mph 1014.7mb 32f
6:06am 9 17 mph 1014.8mb 32f
6:00am 10 14 mph 1014.8mb 32f
5:54am 13 17 mph 1015mb 32f
5:48am 13 16 mph 1015.2mb 32f
5:42am 11 20 mph 1015.2mb 32f
5:36am 13 18 mph 1015.1mb 31f
5:30am 15 20 mph 1015.2mb 31f
5:24am 11 17 mph 1015.6mb 31f
5:18am 11 17 mph 1015.8mb 31f
5:12am 14 18 mph 1015.8mb 30f
5:06am 13 15 mph 1016.2mb 30f
5:00am 9 13 mph 1016.4mb 30f
4:54am 10 15 mph 1016.7mb 30f
4:42am 11 16 mph 1016.9mb -
4:36am 10 16 mph 1017.2mb -
4:30am 11 15 mph 1017.2mb 30f
4:24am 10 14 mph 1017.4mb 30f
4:18am 9 18 mph 1017.5mb 30f
4:12am 13 16 mph 1017.6mb 30f
4:06am 10 15 mph 1017.8mb 30f
4:00am 10 14 mph 1017.9mb 30f
3:54am 11 16 mph 1018.1mb 30f
3:48am 13 16 mph 1018.4mb -
3:42am 10 14 mph 1018.4mb 30f
3:36am 11 16 mph 1018.5mb 30f
3:30am 9 17 mph 1018.5mb 30f
3:24am 13 15 mph 1018.6mb 30f
3:18am 11 17 mph 1018.6mb 30f
3:12am 11 14 mph 1018.9mb 30f
3:06am 11 14 mph 1019.2mb 30f
3:00am 9 14 mph 1019.4mb 30f
2:54am 13 16 mph 1019.4mb 30f
2:48am 10 14 mph 1019.4mb 30f
2:42am 10 16 mph 1019.6mb 30f
2:36am 9 20 mph 1019.7mb 30f
2:30am 14 18 mph 1019.6mb 30f
2:24am 14 18 mph 1019.9mb 30f
2:18am 13 18 mph 1020.2mb 30f
2:12am 14 18 mph 1020.1mb 30f
2:06am 13 16 mph 1020.2mb 30f
2:00am 13 15 mph 1020.2mb 30f
1:54am 10 14 mph 1020.3mb 30f
1:48am 8 11 mph 1020.3mb -
1:42am 7 13 mph 1020.3mb 29f
1:36am 9 13 mph 1020.5mb 29f
1:30am 8 11 mph 1020.7mb 29f
1:24am 7 9 mph 1020.9mb 29f
1:18am 7 9 mph 1021.1mb 29f
1:12am 6 10 mph 1021.3mb 29f
1:06am 8 11 mph 1021.5mb 29f
1:00am 8 11 mph 1021.7mb 29f
12:54am 7 9 mph 1021.8mb 29f
12:48am 9 13 mph 1021.8mb 29f
12:42am 8 10 mph 1021.9mb 29f
12:36am 7 11 mph 1021.9mb 29f
12:30am 7 9 mph 1021.7mb 29f
12:24am 8 10 mph 1021.7mb 28f
12:18am 8 11 mph 1021.5mb 28f
12:12am 6 8 mph 1021.7mb 28f
12:06am 6 8 mph 1021.8mb 28f
12:00am 5 9 mph 1021.9mb 28f
Tue 03/24 11:54pm 6 7 mph 1022.1mb 28f
11:48pm 6 9 mph 1022.3mb 28f
11:42pm 8 9 mph 1022.6mb 28f
11:36pm 8 9 mph 1022.9mb 28f
11:30pm 6 8 mph 1022.9mb 28f
11:24pm 5 7 mph 1022.9mb 28f
11:18pm 6 8 mph 1022.9mb 28f
11:12pm 6 10 mph 1023mb 28f
11:06pm 7 8 mph 1023mb 28f
11:00pm 6 7 mph 1023mb 29f
10:54pm 6 7 mph 1023mb 29f
10:48pm 5 8 mph 1023.2mb 29f
10:42pm 6 7 mph 1023.2mb 28f
10:36pm 6 8 mph 1023.2mb 29f
10:30pm 6 8 mph 1023.2mb 29f
10:24pm 7 8 mph 1023.2mb 29f
10:18pm 6 8 mph 1023.3mb 29f
10:12pm 6 7 mph 1023.3mb 28f
10:06pm 5 6 mph 1023.4mb 28f
10:00pm 5 7 mph 1023.3mb 28f
9:54pm 5 8 mph 1023.4mb 28f
9:48pm 6 9 mph 1023.4mb 28f
9:42pm 7 8 mph 1023.4mb 28f
9:36pm 6 7 mph 1023.5mb 28f
9:30pm 5 8 mph 1023.6mb 28f
9:24pm 6 7 mph 1023.8mb 28f
9:18pm 3 5 mph 1024mb 28f
9:12pm 2 6 mph 1024.2mb 28f
9:06pm 3 5 mph 1024.2mb 28f
9:00pm 3 5 mph 1024.3mb 27f
8:54pm 5 6 mph 1024.3mb 28f
8:48pm 3 6 mph 1024.2mb 28f
8:42pm 1 3 mph 1024.3mb 28f
8:36pm 3 5 mph 1024.4mb 28f
8:30pm 3 9 mph 1024.4mb 28f
8:24pm 9 10 mph 1024.4mb 28f
8:18pm 9 10 mph 1024.5mb 28f
8:12pm 6 8 mph 1024.4mb 28f
8:06pm 8 9 mph 1024.4mb 28f
8:00pm 7 9 mph 1024.5mb 28f
7:54pm 7 9 mph 1024.6mb 28f
7:48pm 8 9 mph 1024.6mb 29f
7:42pm 8 9 mph 1024.6mb 29f
7:36pm 7 8 mph 1024.7mb 29f
7:30pm 7 8 mph 1024.7mb 29f
7:24pm 7 10 mph 1024.9mb 29f
7:18pm 9 10 mph 1024.9mb 29f
7:12pm 9 10 mph 1024.9mb 30f
7:06pm 9 10 mph 1024.9mb 30f
7:00pm 9
mph
1025mb 30f
6:54pm 8 9 mph 1024.9mb 30f
6:48pm 8 9 mph 1024.9mb 30f
6:42pm 8 10 mph 1024.8mb 30f
6:36pm 10 11 mph 1024.8mb 30f
6:30pm 9 10 mph 1024.8mb 30f
6:24pm 9 10 mph 1024.8mb 30f
6:18pm 9
mph
1024.8mb 30f
6:12pm 9
mph
1024.9mb 30f
6:06pm 9
mph
1024.9mb 29f
6:00pm 8 10 mph 1024.9mb 29f
5:54pm 9 10 mph 1024.9mb 29f
5:48pm 9
mph
1024.9mb 29f
5:42pm 8 10 mph 1024.9mb 29f
5:36pm 9 10 mph 1024.9mb 29f
5:30pm 9 10 mph 1025mb 29f
5:24pm 9 10 mph 1025mb 29f
5:18pm 9
mph
1025.1mb 29f
5:12pm 9 10 mph 1025.1mb 29f
5:06pm 10
mph
1025.1mb 29f
5:00pm 10
mph
1025.2mb 29f
4:54pm 9 11 mph 1025.3mb 29f
4:48pm 9 10 mph 1025.2mb 29f
4:42pm 10 11 mph 1025.3mb 29f
4:36pm 10 11 mph 1025.3mb 29f
4:30pm 10 11 mph 1025.3mb 29f
4:24pm 10 11 mph 1025.4mb 29f
4:18pm 10 11 mph 1025.2mb 29f
4:12pm 10 11 mph 1025.3mb 29f
4:06pm 10
mph
1025.3mb 29f
4:00pm 10 13 mph 1025.4mb 29f
3:54pm 10 11 mph 1025.5mb 29f
3:48pm 11
mph
1025.5mb 29f
3:42pm 11
mph
1025.5mb 29f
3:36pm 11 13 mph 1025.6mb 28f
3:30pm 11 13 mph 1025.6mb 28f
3:24pm 13
mph
1025.7mb 28f
3:18pm 13 14 mph 1025.7mb 28f
3:12pm 13 14 mph 1025.6mb 28f
3:06pm 13 14 mph 1025.7mb 28f
3:00pm 13 15 mph 1025.8mb 28f
2:54pm 14 15 mph 1025.9mb 28f
2:48pm 14 15 mph 1026mb 28f
2:42pm 13 14 mph 1026.1mb 28f
2:36pm 11
mph
1026.2mb 28f
2:30pm 10 11 mph 1026.2mb 28f
2:24pm 9 10 mph 1026.3mb 28f
2:18pm 9 10 mph 1026.3mb 28f
2:12pm 9 11 mph 1026.4mb 28f
2:06pm 10 11 mph 1026.4mb 28f
2:00pm 9 10 mph 1026.4mb 27f
1:54pm 8 9 mph 1026.5mb 28f
1:48pm 8 9 mph 1026.7mb 28f
1:42pm 8 9 mph 1026.7mb 27f
1:36pm 8 9 mph 1026.8mb 27f
1:30pm 8 9 mph 1026.9mb 27f
1:24pm 8 9 mph 1027mb 27f
1:18pm 8 9 mph 1027mb 27f
1:12pm 8 10 mph 1027.2mb 27f
1:06pm 9 13 mph 1027.3mb 27f
1:00pm 9 11 mph 1027.4mb 27f
12:54pm 10 11 mph 1027.5mb 26f
12:48pm 9 11 mph 1027.5mb 26f
12:42pm 10 11 mph 1027.5mb 26f
12:36pm 9 10 mph 1027.5mb 27f
12:30pm 9 11 mph 1027.6mb 27f
12:24pm 9 11 mph 1027.6mb 26f
12:18pm 9 10 mph 1027.6mb 26f
12:12pm 9 11 mph 1027.7mb 26f
12:06pm 10 11 mph 1027.7mb 26f
12:00pm 10 11 mph 1027.8mb 26f
11:54am 10
mph
1027.8mb 26f
11:48am 9 11 mph 1027.8mb 26f
11:42am 10 11 mph 1027.8mb 26f
11:36am 9 10 mph 1027.8mb 26f
11:30am 8 9 mph 1027.8mb 26f
11:24am 8 9 mph 1027.7mb 25f
11:18am 9 10 mph 1027.8mb 25f
11:12am 8 9 mph 1027.7mb 25f
11:06am 7 9 mph 1027.8mb 25f
11:00am 9 10 mph 1027.6mb 25f
10:54am 9 11 mph 1027.7mb 25f
10:48am 9 11 mph 1027.8mb 25f
10:42am 9 10 mph 1027.8mb 25f
10:36am 9 10 mph 1027.8mb 25f
10:30am 8 10 mph 1027.9mb 25f
10:24am 8 9 mph 1027.8mb 24f
10:18am 8 9 mph 1027.8mb 25f
10:12am 7 8 mph 1027.8mb 25f
10:06am 8 9 mph 1027.7mb 25f
10:00am 7 8 mph 1027.7mb 25f
9:54am 7 8 mph 1027.5mb 24f
9:48am 6 8 mph 1027.5mb 24f
9:42am 8 9 mph 1027.6mb 24f
9:36am 6 7 mph 1027.6mb 24f
9:30am 6 7 mph 1027.5mb 24f
9:24am 2 5 mph 1027.6mb 24f
9:18am 2 5 mph 1027.6mb 24f
9:12am 3 6 mph 1027.6mb 24f
9:06am 5 6 mph 1027.7mb 23f
9:00am 5 7 mph 1027.8mb 23f
8:54am 5 6 mph 1027.8mb 23f
8:48am 5 6 mph 1027.8mb 23f
8:42am 5 7 mph 1027.7mb 22f
8:36am 5 6 mph 1027.7mb 22f
8:30am 5 6 mph 1027.6mb 22f
8:24am 3 5 mph 1027.6mb 22f
8:18am 3 5 mph 1027.6mb 22f
8:12am 2 3 mph 1027.5mb 22f
8:06am 2 3 mph 1027.6mb 22f
8:00am 2 3 mph 1027.5mb 22f
7:54am 2
mph
1027.6mb 22f
7:48am 2 3 mph 1027.6mb 21f
7:42am 2
mph
1027.5mb 21f
7:36am 2 3 mph 1027.6mb 20f
7:30am 1 2 mph 1027.6mb 20f
7:24am  -  1 mph 1027.6mb 21f
7:18am  -  2 mph 1027.5mb 20f
7:12am 2 3 mph 1027.4mb 20f
7:06am 1 5 mph 1027.3mb 20f
7:00am 2 5 mph 1027.3mb 19f
6:54am 5 6 mph 1027.3mb 19f
6:48am 5 6 mph 1027.2mb 20f
6:42am 5 6 mph 1027.2mb 20f
6:36am 6 7 mph 1027.1mb 20f
6:30am 6 7 mph 1027mb 21f
6:24am 6 8 mph 1027mb 21f
6:18am 7 9 mph 1026.9mb 22f
6:12am 7 9 mph 1027mb 22f
6:06am 8 10 mph 1026.9mb 22f
6:00am 8 10 mph 1026.8mb 22f
5:54am 8 9 mph 1026.7mb 22f
5:48am 8 9 mph 1026.7mb 22f
5:42am 6 9 mph 1026.7mb 22f
5:36am 8 10 mph 1026.6mb 22f
5:30am 8 10 mph 1026.5mb 22f
5:24am 9 10 mph 1026.5mb 22f
5:18am 9 10 mph 1026.4mb 22f
5:12am 9 11 mph 1026.4mb 22f
5:06am 9 10 mph 1026.3mb 22f
5:00am 8 10 mph 1026.3mb 22f
4:54am 9 10 mph 1026.3mb 22f
4:48am  -  mph 1026.3mb -
4:42am 8 10 mph 1026.2mb -
4:36am 8 10 mph 1026.2mb -
4:30am 9 10 mph 1026.1mb 22f
4:24am 6 7 mph 1026.1mb 22f
4:18am 6 8 mph 1026.1mb -
4:12am 6 7 mph 1026.1mb 21f
4:06am 7
mph
1026mb 21f
4:00am 6 8 mph 1026mb 21f
3:54am 7 8 mph 1026mb 21f
3:48am 6 7 mph 1026.1mb 20f
3:42am 6 7 mph 1026.1mb 20f
3:36am 5 7 mph 1026.2mb 20f
3:30am 6 7 mph 1026.1mb 20f
3:24am 6 7 mph 1026.2mb 20f
3:18am 5 6 mph 1026.2mb 21f
3:12am 6 7 mph 1026.3mb 21f
3:06am 5 7 mph 1026.3mb 21f
3:00am 6 7 mph 1026.3mb 21f
2:54am 3 6 mph 1026.4mb 20f
2:48am 5 6 mph 1026.5mb 21f
2:42am 5 6 mph 1026.4mb 21f
2:36am 5 7 mph 1026.4mb 20f
2:30am 6 7 mph 1026.4mb 20f
2:24am 6 7 mph 1026.4mb 20f
2:18am 7 8 mph 1026.4mb 20f
2:12am 7 8 mph 1026.4mb 20f
2:06am 7 8 mph 1026.4mb 21f
2:00am 8 9 mph 1026.4mb 21f
1:54am 8 9 mph 1026.5mb 21f
1:48am 8 10 mph 1026.5mb 21f
1:42am 9 10 mph 1026.4mb 21f
1:36am 10 14 mph 1026.2mb 21f
1:30am 11 14 mph 1026.2mb 21f
1:24am 9 11 mph 1026.1mb 21f
1:18am 9 13 mph 1026.1mb 21f
1:12am 10 13 mph 1026.1mb 21f
1:06am 11 14 mph 1026.1mb 21f
1:00am 13 14 mph 1026.1mb 21f
12:54am 11 13 mph 1026mb 21f
12:48am 11 13 mph 1026.1mb 21f
12:42am 10 13 mph 1026.3mb 22f
12:36am 11 13 mph 1026.5mb 21f
12:30am 11 13 mph 1026.6mb 21f
12:24am 11 13 mph 1026.6mb 21f
12:18am 10 13 mph 1026.6mb 21f
12:12am 13 14 mph 1026.5mb 21f
12:06am 13 14 mph 1026.5mb 21f
12:00am 13 14 mph 1026.5mb 21f
Mon 03/23 11:54pm 11 13 mph 1026.6mb 21f
11:48pm 13 14 mph 1026.7mb 21f
11:42pm 13 14 mph 1026.6mb 21f
11:36pm 13 14 mph 1026.7mb 21f
11:30pm 13 14 mph 1026.6mb 21f
11:24pm 11 13 mph 1026.6mb 21f
11:18pm 11 13 mph 1026.6mb 21f
11:12pm 13
mph
1026.7mb 21f
11:06pm 11 13 mph 1026.8mb 21f
11:00pm 11 13 mph 1026.8mb 21f
10:54pm 11 14 mph 1026.7mb 21f
10:48pm 11 13 mph 1026.7mb 21f
10:42pm 13 14 mph 1026.7mb 21f
10:36pm 11 14 mph 1026.7mb 21f
10:30pm 11 14 mph 1026.7mb 21f
10:24pm 13 14 mph 1026.5mb 21f
10:18pm 13 15 mph 1026.5mb 21f
10:12pm 11 14 mph 1026.4mb 21f
10:06pm 13 15 mph 1026.4mb 21f
10:00pm 13 14 mph 1026.4mb 21f
9:54pm 11 13 mph 1026.5mb 21f
9:48pm 11 13 mph 1026.6mb 21f
9:42pm 11 13 mph 1026.7mb 21f
9:36pm 10 13 mph 1026.7mb 21f
9:30pm 11 13 mph 1026.8mb 21f
9:24pm 10 13 mph 1026.8mb 21f
9:18pm 10 11 mph 1026.7mb 21f
9:12pm 9 11 mph 1026.9mb 21f
9:06pm 9 11 mph 1026.8mb 21f
9:00pm 10 13 mph 1026.7mb 20f
8:54pm 10 13 mph 1026.7mb 21f
8:48pm 11
mph
1026.6mb 21f
8:42pm 11 14 mph 1026.7mb 21f
8:36pm 11 13 mph 1026.7mb 21f
8:30pm 10 14 mph 1026.7mb 21f
8:24pm 13 14 mph 1026.8mb 21f
8:18pm 11 14 mph 1026.8mb 21f
8:12pm 11 14 mph 1026.9mb 21f
8:06pm 13 14 mph 1026.8mb 21f
8:00pm 13 14 mph 1026.6mb 21f
7:54pm 11 14 mph 1026.6mb 21f
7:48pm 13 15 mph 1026.6mb 21f
7:42pm 13 15 mph 1026.6mb 21f
7:36pm 13 15 mph 1026.6mb 21f
7:30pm 13 16 mph 1026.6mb 21f
7:24pm 14 16 mph 1026.6mb 21f
7:18pm 11 15 mph 1026.6mb 21f
7:12pm 11 15 mph 1026.7mb 21f
7:06pm 13 15 mph 1026.7mb 21f
7:00pm 13 15 mph 1026.7mb 22f
6:54pm 10 15 mph 1026.7mb 21f
6:48pm 11 14 mph 1026.7mb 21f
6:42pm 13 14 mph 1026.8mb 21f
6:36pm 13 15 mph 1026.9mb 21f
6:30pm 13 15 mph 1026.8mb 21f
6:24pm 14 16 mph 1026.8mb 21f
6:18pm 13 17 mph 1026.8mb 22f
6:12pm 13 16 mph 1026.7mb 21f
6:06pm 13 17 mph 1026.6mb 21f
6:00pm 14 16 mph 1026.5mb 21f
5:54pm 14 16 mph 1026.5mb 22f
5:48pm 13 16 mph 1026.5mb 21f
5:42pm 15 18 mph 1026.4mb 21f
5:36pm 14 16 mph 1026.4mb 21f
5:30pm 14 17 mph 1026.5mb 21f
5:24pm 14 17 mph 1026.5mb 21f
5:18pm 14 17 mph 1026.7mb 21f
5:12pm 14 16 mph 1026.6mb 21f
5:06pm 13 16 mph 1026.7mb 21f
5:00pm 14 16 mph 1026.6mb 21f
4:54pm 14 16 mph 1026.6mb 21f
4:48pm 16 18 mph 1026.7mb 21f
4:42pm 14 17 mph 1026.7mb 21f
4:36pm 14 17 mph 1026.7mb 21f
4:30pm 14 17 mph 1026.8mb 21f
4:24pm 15 17 mph 1026.8mb 21f
4:18pm 16 17 mph 1026.9mb 21f
4:12pm 14 17 mph 1026.9mb 21f
4:06pm 13 17 mph 1026.9mb 21f
4:00pm 14 18 mph 1026.8mb 21f
3:54pm 15 17 mph 1026.9mb 21f
3:48pm 15 20 mph 1026.9mb 21f
3:42pm 14 17 mph 1026.9mb 20f
3:36pm 14 17 mph 1026.9mb 20f
3:30pm 15 17 mph 1026.9mb 21f
3:24pm 14 17 mph 1027mb 21f
3:18pm 13 18 mph 1027mb 21f
3:12pm 14 17 mph 1027mb 21f
3:06pm 15 18 mph 1027.1mb 20f
3:00pm 14 18 mph 1027mb 20f
2:54pm 15 17 mph 1027.1mb 20f
2:48pm 13 17 mph 1027.1mb 21f
2:42pm 15 18 mph 1027.1mb 21f
2:36pm 15 18 mph 1027.1mb 21f
2:30pm 14 18 mph 1027mb 21f
2:24pm 15 18 mph 1027.1mb 21f
2:18pm 15 18 mph 1027mb 21f
2:12pm 15 18 mph 1027.2mb 21f
2:06pm 16 21 mph 1027.2mb 21f
2:00pm 15 18 mph 1027.2mb 21f
1:54pm 15 20 mph 1027.2mb 21f
1:48pm 14 17 mph 1027.4mb 21f
1:42pm 15 18 mph 1027.3mb 21f
1:36pm 15 18 mph 1027.4mb 21f
1:30pm 14 18 mph 1027.4mb 21f
1:24pm 15 17 mph 1027.4mb 22f
1:18pm 15 18 mph 1027.6mb 22f
1:12pm 14 18 mph 1027.7mb 21f
1:06pm 15 18 mph 1027.7mb 21f
1:00pm 14 18 mph 1027.7mb 22f
12:54pm 15 17 mph 1027.7mb 21f
12:48pm 16 20 mph 1027.7mb 21f
12:42pm 15 20 mph 1027.7mb 21f
12:36pm 16 20 mph 1027.8mb 21f
12:30pm 17 21 mph 1027.9mb 21f
12:24pm 16 18 mph 1028mb 21f
12:18pm 14 18 mph 1028.2mb 21f
12:12pm 15 17 mph 1028.2mb 21f
12:06pm 15 17 mph 1028.1mb 21f
12:00pm 15 18 mph 1028.1mb 22f
11:54am 16 20 mph 1028.1mb 21f
11:48am 17 21 mph 1028.1mb 22f
11:42am 17 21 mph 1028.1mb 21f
11:36am 16 18 mph 1028.1mb 22f
11:30am 18 20 mph 1028.1mb 22f
11:24am 17 20 mph 1028mb 22f
11:18am 15 21 mph 1028.1mb 21f
11:12am 17 20 mph 1028.1mb 21f
11:06am 15 21 mph 1028.1mb 22f
11:00am 17 20 mph 1028.1mb 22f
10:54am 16 21 mph 1028.1mb 22f
10:48am 17 21 mph 1028.2mb 22f
10:42am 16 20 mph 1028.3mb 22f
10:36am 16 17 mph 1028.4mb 22f
10:30am 14 17 mph 1028.3mb 22f
10:24am 13 18 mph 1028.2mb 22f
10:18am 15 18 mph 1028.3mb 21f
10:12am 15 18 mph 1028.2mb 22f
10:06am 14 17 mph 1028.1mb 22f
10:00am 15 18 mph 1028.2mb 22f
9:54am 16 18 mph 1028.1mb 22f
9:48am 16 17 mph 1028.1mb 22f
9:42am 14 17 mph 1028mb 21f
9:36am 15 17 mph 1028mb 22f
9:30am 16 18 mph 1028.1mb 22f
9:24am 16 17 mph 1028.3mb 21f
9:18am 15 18 mph 1028.3mb 21f
9:12am 17 20 mph 1028.3mb 21f
9:06am 16 20 mph 1028.2mb 22f
9:00am 16 18 mph 1028.1mb 21f
8:54am 15 18 mph 1028.1mb 22f
8:48am 16 20 mph 1028.1mb 22f
8:42am 16 18 mph 1028.1mb 21f
8:36am 17 20 mph 1028mb 21f
8:30am 17 20 mph 1027.9mb 22f
8:24am 18 22 mph 1027.8mb 22f
8:18am 17 22 mph 1027.8mb 21f
8:12am 17 22 mph 1027.8mb 21f
8:06am 20 22 mph 1027.7mb 21f
8:00am 20 23 mph 1027.6mb 22f
7:54am 20 22 mph 1027.6mb 22f
7:48am 20 22 mph 1027.4mb 22f
7:42am 21 23 mph 1027.4mb 22f
7:36am 21 22 mph 1027.3mb 22f
7:30am 21 22 mph 1027.2mb 22f
7:24am 21 22 mph 1027.1mb 22f
7:18am 21 23 mph 1027.2mb 22f
7:12am 20 23 mph 1027.1mb 22f
7:06am 20 22 mph 1027mb 23f
7:00am 21 24 mph 1027.2mb 24f
6:54am 20 22 mph 1027mb 23f
6:48am 17 20 mph 1027.1mb 24f
6:42am 17 20 mph 1026.8mb 24f
6:36am 16 18 mph 1026.8mb 24f
6:30am 18 20 mph 1026.8mb 24f
6:24am 20 22 mph 1026.6mb 24f
6:18am 20 22 mph 1026.4mb 25f
6:12am 21 23 mph 1026.4mb 25f
6:06am 21 22 mph 1026.4mb 25f
6:00am 20 24 mph 1026.3mb 25f
5:54am 18 22 mph 1026.4mb 25f
5:48am 18 21 mph 1026.5mb 25f
5:42am 18 21 mph 1026.4mb 24f
5:36am 18 21 mph 1026.4mb 25f
5:30am 18 21 mph 1026.3mb 25f
5:24am 15 20 mph 1026.3mb 25f
5:18am 18 24 mph 1026.2mb 26f
5:12am 23 24 mph 1026mb 25f
5:06am 17 20 mph 1025.8mb 27f
5:00am 18 21 mph 1025.7mb 26f
4:54am 15 21 mph 1025.9mb 26f
4:48am 20 23 mph 1025.9mb 26f
4:42am 17 22 mph 1025.9mb 26f
4:36am 18 23 mph 1025.8mb 27f
4:30am 17 22 mph 1025.7mb 27f
4:24am 17 21 mph 1025.6mb 27f
4:18am 16 22 mph 1025.7mb 27f
4:12am 18 23 mph 1025.7mb 26f
4:06am 17 18 mph 1025.7mb 26f
4:00am 14 16 mph 1025.7mb 26f
3:54am 14 17 mph 1025.7mb 26f
3:48am 15 17 mph 1025.6mb 26f
3:42am 14 18 mph 1025.6mb 26f
3:36am 14 17 mph 1025.7mb 26f
3:30am 10 14 mph 1025.7mb 26f
3:24am 14 16 mph 1025.8mb 26f
3:18am 14 16 mph 1025.7mb 26f
3:12am 14 17 mph 1025.7mb 26f
3:06am 15 18 mph 1025.7mb 27f
3:00am 16 18 mph 1025.7mb 27f
2:54am 14 16 mph 1025.7mb 27f
2:48am 7 10 mph 1025.8mb 26f
2:42am 2 5 mph 1025.7mb 23f
2:36am  -  2 mph 1025.7mb 23f
2:30am 2 6 mph 1025.7mb 22f
2:24am  -  3 mph 1025.8mb 23f
2:18am 1 5 mph 1025.8mb 23f
2:12am 3 5 mph 1025.7mb 23f
2:06am 2
mph
1025.7mb 22f
2:00am 2 5 mph 1025.7mb 22f
1:54am 3 5 mph 1025.7mb 23f
1:48am 3 5 mph 1025.7mb 23f
1:42am 2 5 mph 1025.6mb 23f
1:36am 3 6 mph 1025.6mb 23f
1:30am 3 6 mph 1025.6mb 23f
1:24am 3 5 mph 1025.6mb 23f
1:18am 1 5 mph 1025.5mb 23f
1:12am 3 5 mph 1025.5mb 23f
1:06am 3 5 mph 1025.4mb 23f
1:00am 3 6 mph 1025.3mb 23f
12:54am 2 5 mph 1025.3mb 23f
12:48am 3 5 mph 1025.3mb 22f
12:42am 2 3 mph 1025.3mb 23f
12:36am 3 6 mph 1025.3mb 23f
12:30am 5 7 mph 1025.2mb 23f
12:24am 6 8 mph 1025.2mb 24f
12:18am 8 9 mph 1025.1mb 24f
12:12am 7 8 mph 1025.1mb 24f
12:06am 7 9 mph 1025.1mb 24f